Accueil
METAR-TAF:

METAR-TAF

Aéroports :

Twin County Airport

Galax / Hillsville, Virginie, États-Unis

latitude: 36-46N, longitude: 080-49W, altitude: 834 m

Observation

Le bulletin a été fait il y a 22 minutes, à 18:35 UTC
Vent 4 kt de ouest/sud-ouest
Température 29°C
Humidité 55%
Pression 1015 hPa
Visibilité: 16.1 km
Nuages épars à une hauteur de 5000 ft

METAR: KHLX 101835Z AUTO 25004KT 10SM SCT050 29/19 A2997 RMK AO2 T02940186

Heure: 14:57 (18:57 UTC)


TAF: absent

Observations et prévisions météorologiques de plus de 4000 aéroports (messages METAR et TAF).

Les stations disponibles sont représentées par des disques jaunes et rouges sur la carte.

Passer la souris dessus pour voir le nom de la station.

Cliquer dessus pour voir les observations et prévisions météorologiques.

Pour changer de carte: cliquez sur les boutons verts avec une croix noire pour zoomer, sur le bouton vert avec un tiret pour effectuer un zoom arrière, ou sur les flèches vertes pour les cartes adjacentes.


METAR-TAF: